Time;durP1;ratioP1;P1;durP2;ratioP2;P2;SDS_P1;SDS_P2;PMS_P1;PMS_P2;Temp;Humidity;BMP_temperature;BMP_pressure;BME280_temperature;BME280_humidity;BME280_pressure;Samples;Min_cycle;Max_cycle;Signal;HPM_P1;HPM_P2
2023/05/08 03:03:46;;;;;;;1999.90;999.90;;;;;;;;;;6208575;22;21238;-71
2023/05/08 03:06:33;;;;;;;1999.90;999.90;;;;;;;;;;6153488;23;20174;-70
2023/05/08 03:09:21;;;;;;;1999.90;999.90;;;;;;;;;;6153442;23;20210;-72
2023/05/08 03:12:09;;;;;;;1999.90;999.90;;;;;;;;;;6154443;23;20626;-68
2023/05/08 03:14:56;;;;;;;1999.90;999.90;;;;;;;;;;6154293;23;20206;-71
2023/05/08 03:17:42;;;;;;;1999.90;999.90;;;;;;;;;;6154316;23;20224;-72
2023/05/08 03:20:31;;;;;;;1999.90;999.90;;;;;;;;;;6153978;23;20206;-67
2023/05/08 03:23:17;;;;;;;1999.90;999.90;;;;;;;;;;6154321;23;20505;-72
2023/05/08 03:26:03;;;;;;;1999.90;999.90;;;;;;;;;;6153922;23;20166;-71
2023/05/08 03:28:49;;;;;;;1999.90;999.90;;;;;;;;;;6153757;23;20171;-69
2023/05/08 03:31:34;;;;;;;1999.90;999.90;;;;;;;;;;6154070;23;20171;-71
2023/05/08 03:34:20;;;;;;;1999.90;999.90;;;;;;;;;;6153622;23;20206;-68
2023/05/08 03:37:07;;;;;;;1999.90;999.90;;;;;;;;;;6152945;23;20377;-70
2023/05/08 03:39:52;;;;;;;1999.90;999.90;;;;;;;;;;6153790;23;20167;-68
2023/05/08 03:42:37;;;;;;;1999.90;999.90;;;;;;;;;;6154081;23;20167;-67
2023/05/08 03:45:22;;;;;;;1999.90;999.90;;;;;;;;;;6153906;23;20214;-70
2023/05/08 03:48:08;;;;;;;1999.90;999.90;;;;;;;;;;6153214;23;20239;-72
2023/05/08 03:50:54;;;;;;;1999.90;999.90;;;;;;;;;;6152752;23;20209;-72
2023/05/08 03:53:40;;;;;;;1999.90;999.90;;;;;;;;;;6153564;23;20627;-71
2023/05/08 03:56:25;;;;;;;1999.90;999.90;;;;;;;;;;6153184;23;20171;-71
2023/05/08 03:59:14;;;;;;;1999.90;999.90;;;;;;;;;;6152530;23;20178;-71
2023/05/08 04:02:00;;;;;;;1999.90;999.90;;;;;;;;;;6154296;23;20615;-72
2023/05/08 04:04:47;;;;;;;1999.90;999.90;;;;;;;;;;6166234;23;20253;-71
2023/05/08 04:07:36;;;;;;;1999.90;999.90;;;;;;;;;;6183079;23;20173;-69
2023/05/08 04:10:24;;;;;;;1999.90;999.90;;;;;;;;;;6181089;23;20419;-71
2023/05/08 04:13:11;;;;;;;1999.90;999.90;;;;;;;;;;6183187;23;20194;-71
2023/05/08 04:16:01;;;;;;;1999.90;999.90;;;;;;;;;;6182325;23;20256;-72
2023/05/08 04:18:46;;;;;;;1999.90;999.90;;;;;;;;;;6182678;23;20174;-69
2023/05/08 04:21:33;;;;;;;1999.90;999.90;;;;;;;;;;6182405;23;20178;-71
2023/05/08 04:24:19;;;;;;;1999.90;999.90;;;;;;;;;;6182921;23;20205;-70
2023/05/08 04:27:07;;;;;;;1999.90;999.90;;;;;;;;;;6181413;23;20389;-71
2023/05/08 04:29:53;;;;;;;1999.90;999.90;;;;;;;;;;6182524;23;20230;-71
2023/05/08 04:32:38;;;;;;;1999.90;999.90;;;;;;;;;;6182159;23;20210;-71
2023/05/08 04:35:23;;;;;;;1999.90;999.90;;;;;;;;;;6183374;23;20205;-69
2023/05/08 04:38:08;;;;;;;1999.90;999.90;;;;;;;;;;6183854;23;20506;-71
2023/05/08 04:40:53;;;;;;;1999.90;999.90;;;;;;;;;;6183276;23;20291;-71
2023/05/08 04:43:39;;;;;;;1999.90;999.90;;;;;;;;;;6182953;23;20170;-72
2023/05/08 04:46:24;;;;;;;1999.90;999.90;;;;;;;;;;6185053;23;20174;-71
2023/05/08 04:49:09;;;;;;;1999.90;999.90;;;;;;;;;;6185176;23;20166;-71
2023/05/08 04:51:54;;;;;;;1999.90;999.90;;;;;;;;;;6185391;23;20170;-73
2023/05/08 04:54:39;;;;;;;1999.90;999.90;;;;;;;;;;6185473;23;20248;-71
2023/05/08 04:57:24;;;;;;;1999.90;999.90;;;;;;;;;;6185624;23;20784;-71
2023/05/08 05:00:11;;;;;;;1999.90;999.90;;;;;;;;;;6184803;23;20449;-71
2023/05/08 05:02:56;;;;;;;1999.90;999.90;;;;;;;;;;6185402;23;20170;-72
2023/05/08 05:05:41;;;;;;;1999.90;999.90;;;;;;;;;;6185286;23;20309;-71
2023/05/08 05:08:26;;;;;;;1999.90;999.90;;;;;;;;;;6185515;23;20219;-71
2023/05/08 05:11:11;;;;;;;1999.90;999.90;;;;;;;;;;6185160;23;20273;-72
2023/05/08 05:13:56;;;;;;;1999.90;999.90;;;;;;;;;;6185240;23;20535;-71
2023/05/08 05:16:42;;;;;;;1999.90;999.90;;;;;;;;;;6184406;23;20388;-71
2023/05/08 05:19:27;;;;;;;1999.90;999.90;;;;;;;;;;6184977;23;20361;-72
2023/05/08 05:22:12;;;;;;;1999.90;999.90;;;;;;;;;;6185347;23;20171;-72
2023/05/08 05:24:57;;;;;;;1999.90;999.90;;;;;;;;;;6185143;23;20209;-71
2023/05/08 05:27:41;;;;;;;1999.90;999.90;;;;;;;;;;6185206;23;20278;-72
2023/05/08 05:30:27;;;;;;;1999.90;999.90;;;;;;;;;;6183783;23;20190;-72
2023/05/08 05:33:13;;;;;;;1999.90;999.90;;;;;;;;;;6184126;23;20193;-68
2023/05/08 05:35:59;;;;;;;1999.90;999.90;;;;;;;;;;6184963;23;20676;-70
2023/05/08 05:38:44;;;;;;;1999.90;999.90;;;;;;;;;;6184783;23;20169;-72
2023/05/08 05:41:28;;;;;;;1999.90;999.90;;;;;;;;;;6185312;23;20497;-70
2023/05/08 05:44:13;;;;;;;1999.90;999.90;;;;;;;;;;6184740;23;20205;-70
2023/05/08 05:46:58;;;;;;;1999.90;999.90;;;;;;;;;;6185059;23;20169;-71
2023/05/08 05:49:45;;;;;;;1999.90;999.90;;;;;;;;;;6184733;23;20191;-71
2023/05/08 05:52:30;;;;;;;1999.90;999.90;;;;;;;;;;6184952;23;20261;-70
2023/05/08 05:55:16;;;;;;;1999.90;999.90;;;;;;;;;;6184872;23;20551;-71
2023/05/08 05:58:01;;;;;;;1999.90;999.90;;;;;;;;;;6184765;23;20187;-72
2023/05/08 06:00:46;;;;;;;1999.90;999.90;;;;;;;;;;6184700;23;20165;-67
2023/05/08 06:03:31;;;;;;;1999.90;999.90;;;;;;;;;;6184160;23;20451;-70
2023/05/08 06:06:17;;;;;;;1999.90;999.90;;;;;;;;;;6184895;23;20875;-71
2023/05/08 06:09:03;;;;;;;1999.90;999.90;;;;;;;;;;6184672;23;20173;-71
2023/05/08 06:11:48;;;;;;;1999.90;999.90;;;;;;;;;;6185091;23;20294;-70
2023/05/08 06:14:33;;;;;;;1999.90;999.90;;;;;;;;;;6184948;23;20389;-72
2023/05/08 06:17:18;;;;;;;1999.90;999.90;;;;;;;;;;6185153;23;20170;-73
2023/05/08 06:20:04;;;;;;;1999.90;999.90;;;;;;;;;;6184688;23;20169;-75
2023/05/08 06:22:50;;;;;;;1999.90;999.90;;;;;;;;;;6185064;23;20217;-73
2023/05/08 06:25:35;;;;;;;1999.90;999.90;;;;;;;;;;6184173;23;20750;-73
2023/05/08 06:28:21;;;;;;;1999.90;999.90;;;;;;;;;;6181737;23;20190;-73
2023/05/08 06:31:06;;;;;;;1999.90;999.90;;;;;;;;;;6183415;23;20194;-73
2023/05/08 06:33:50;;;;;;;1999.90;999.90;;;;;;;;;;6183666;23;20209;-73
2023/05/08 06:36:36;;;;;;;1999.90;999.90;;;;;;;;;;6183767;23;20222;-72
2023/05/08 06:39:22;;;;;;;1999.90;999.90;;;;;;;;;;6184047;23;20257;-72
2023/05/08 06:42:07;;;;;;;1999.90;999.90;;;;;;;;;;6184340;23;20516;-72
2023/05/08 06:44:53;;;;;;;1999.90;999.90;;;;;;;;;;6184532;23;20202;-73
2023/05/08 06:47:38;;;;;;;1999.90;999.90;;;;;;;;;;6184918;23;20242;-73
2023/05/08 06:50:23;;;;;;;1999.90;999.90;;;;;;;;;;6184520;23;20193;-73
2023/05/08 06:53:08;;;;;;;1999.90;999.90;;;;;;;;;;6184136;23;20377;-71
2023/05/08 06:55:56;;;;;;;1999.90;999.90;;;;;;;;;;6183554;23;20207;-72
2023/05/08 06:58:41;;;;;;;1999.90;999.90;;;;;;;;;;6183270;23;20170;-71
2023/05/08 07:01:27;;;;;;;1999.90;999.90;;;;;;;;;;6183538;23;20167;-69
2023/05/08 07:04:12;;;;;;;1999.90;999.90;;;;;;;;;;6182465;23;20210;-72
2023/05/08 07:06:57;;;;;;;1999.90;999.90;;;;;;;;;;6183306;23;20171;-71
2023/05/08 07:09:42;;;;;;;1999.90;999.90;;;;;;;;;;6183297;23;20518;-71
2023/05/08 07:12:28;;;;;;;1999.90;999.90;;;;;;;;;;6183230;23;20181;-69
2023/05/08 07:15:13;;;;;;;1999.90;999.90;;;;;;;;;;6182719;23;20206;-71
2023/05/08 07:17:58;;;;;;;1999.90;999.90;;;;;;;;;;6183571;23;20166;-71
2023/05/08 07:20:43;;;;;;;1999.90;999.90;;;;;;;;;;6183000;23;20214;-72
2023/05/08 07:23:28;;;;;;;1999.90;999.90;;;;;;;;;;6183042;23;20166;-70
2023/05/08 07:26:13;;;;;;;1999.90;999.90;;;;;;;;;;6183855;23;20170;-70
2023/05/08 07:28:59;;;;;;;1999.90;999.90;;;;;;;;;;6183246;23;20234;-72
2023/05/08 07:31:45;;;;;;;1999.90;999.90;;;;;;;;;;6183390;23;20663;-73
2023/05/08 07:34:32;;;;;;;1999.90;999.90;;;;;;;;;;6183794;23;20205;-71
2023/05/08 07:37:17;;;;;;;1999.90;999.90;;;;;;;;;;6183901;23;20635;-70
2023/05/08 07:40:02;;;;;;;1999.90;999.90;;;;;;;;;;6182814;23;20401;-70
2023/05/08 07:42:47;;;;;;;1999.90;999.90;;;;;;;;;;6182801;23;20170;-72
2023/05/08 07:45:35;;;;;;;1999.90;999.90;;;;;;;;;;6183226;23;20253;-71
2023/05/08 07:48:20;;;;;;;1999.90;999.90;;;;;;;;;;6183554;23;20221;-71
2023/05/08 07:51:05;;;;;;;1999.90;999.90;;;;;;;;;;6182452;23;20208;-71
2023/05/08 07:53:50;;;;;;;1999.90;999.90;;;;;;;;;;6183688;23;20222;-72
2023/05/08 07:56:35;;;;;;;1999.90;999.90;;;;;;;;;;6182117;23;20169;-70
2023/05/08 07:59:20;;;;;;;1999.90;999.90;;;;;;;;;;6182300;23;20254;-72
2023/05/08 08:02:06;;;;;;;1999.90;999.90;;;;;;;;;;6182522;23;20162;-70
2023/05/08 08:04:51;;;;;;;1999.90;999.90;;;;;;;;;;6182320;23;20213;-73
2023/05/08 08:07:36;;;;;;;1999.90;999.90;;;;;;;;;;6182339;23;20233;-71
2023/05/08 08:10:21;;;;;;;1999.90;999.90;;;;;;;;;;6182527;23;20404;-73
2023/05/08 08:13:06;;;;;;;1999.90;999.90;;;;;;;;;;6183075;23;20166;-72
2023/05/08 08:15:51;;;;;;;1999.90;999.90;;;;;;;;;;6181730;23;20205;-73
2023/05/08 08:18:37;;;;;;;1999.90;999.90;;;;;;;;;;6182168;23;20170;-72
2023/05/08 08:21:22;;;;;;;1999.90;999.90;;;;;;;;;;6183382;23;20169;-71
2023/05/08 08:24:07;;;;;;;1999.90;999.90;;;;;;;;;;6183658;23;20273;-72
2023/05/08 08:26:51;;;;;;;1999.90;999.90;;;;;;;;;;6182905;23;20436;-73
2023/05/08 08:29:36;;;;;;;1999.90;999.90;;;;;;;;;;6182946;23;20168;-72
2023/05/08 08:32:21;;;;;;;1999.90;999.90;;;;;;;;;;6181825;23;20193;-73
2023/05/08 08:35:08;;;;;;;1999.90;999.90;;;;;;;;;;6182630;23;20276;-72
2023/05/08 08:37:53;;;;;;;1999.90;999.90;;;;;;;;;;6182945;23;20170;-74
2023/05/08 08:40:38;;;;;;;1999.90;999.90;;;;;;;;;;6181947;23;20162;-71
2023/05/08 08:43:23;;;;;;;1999.90;999.90;;;;;;;;;;6182936;23;20214;-73
2023/05/08 08:46:10;;;;;;;1999.90;999.90;;;;;;;;;;6182665;23;20249;-69
2023/05/08 08:48:55;;;;;;;1999.90;999.90;;;;;;;;;;6182909;23;20751;-72
2023/05/08 08:51:44;;;;;;;1999.90;999.90;;;;;;;;;;6182083;23;20189;-70
2023/05/08 08:54:30;;;;;;;1999.90;999.90;;;;;;;;;;6182898;23;20253;-72
2023/05/08 08:57:15;;;;;;;1999.90;999.90;;;;;;;;;;6181912;23;20853;-72
2023/05/08 09:00:03;;;;;;;1999.90;999.90;;;;;;;;;;6183269;23;20193;-71
2023/05/08 09:02:48;;;;;;;1999.90;999.90;;;;;;;;;;6182422;23;20201;-71
2023/05/08 09:05:33;;;;;;;1999.90;999.90;;;;;;;;;;6180707;23;20598;-71
2023/05/08 09:08:19;;;;;;;1999.90;999.90;;;;;;;;;;6180813;23;20294;-72
2023/05/08 09:11:05;;;;;;;1999.90;999.90;;;;;;;;;;6181339;23;20209;-71
2023/05/08 09:13:50;;;;;;;1999.90;999.90;;;;;;;;;;6181651;23;20729;-71
2023/05/08 09:16:35;;;;;;;1999.90;999.90;;;;;;;;;;6182569;23;20182;-71
2023/05/08 09:19:20;;;;;;;1999.90;999.90;;;;;;;;;;6179037;23;20167;-71
2023/05/08 09:22:08;;;;;;;1999.90;999.90;;;;;;;;;;6180317;23;20232;-71
2023/05/08 09:24:58;;;;;;;1999.90;999.90;;;;;;;;;;6180582;23;20251;-72
2023/05/08 09:27:43;;;;;;;1999.90;999.90;;;;;;;;;;6181492;23;20170;-71
2023/05/08 09:30:28;;;;;;;1999.90;999.90;;;;;;;;;;6181448;23;20172;-71
2023/05/08 10:38:16;;;;;;;1999.90;999.90;;;;;;;;;;5044086;27;1237142;-72
2023/05/08 10:41:02;;;;;;;1999.90;999.90;;;;;;;;;;5096391;28;20206;-71
2023/05/08 10:43:48;;;;;;;1999.90;999.90;;;;;;;;;;5104192;28;20211;-72
2023/05/08 10:46:37;;;;;;;1999.90;999.90;;;;;;;;;;5096979;28;20207;-72
2023/05/08 10:49:26;;;;;;;1999.90;999.90;;;;;;;;;;5097657;28;20211;-71
2023/05/08 10:52:16;;;;;;;1999.90;999.90;;;;;;;;;;5092376;28;20687;-71
2023/05/08 10:55:16;;;;;;;1999.90;999.90;;;;;;;;;;5094554;28;20212;-71
2023/05/08 10:58:05;;;;;;;1999.90;999.90;;;;;;;;;;5095032;28;20227;-71
2023/05/08 11:01:09;;;;;;;1999.90;999.90;;;;;;;;;;5090316;28;20472;-70
2023/05/08 11:03:54;;;;;;;1999.90;999.90;;;;;;;;;;5099897;28;20578;-72
2023/05/08 11:06:44;;;;;;;1999.90;999.90;;;;;;;;;;5101325;28;20199;-72
2023/05/08 11:09:30;;;;;;;1999.90;999.90;;;;;;;;;;5103525;28;20264;-73
2023/05/08 11:12:22;;;;;;;1999.90;999.90;;;;;;;;;;5092719;28;20282;-72
2023/05/08 11:15:08;;;;;;;1999.90;999.90;;;;;;;;;;5098804;28;20710;-73
2023/05/08 11:17:53;;;;;;;1999.90;999.90;;;;;;;;;;5093831;28;20257;-73
2023/05/08 11:20:39;;;;;;;1999.90;999.90;;;;;;;;;;5092897;28;20953;-72
2023/05/08 11:23:25;;;;;;;1999.90;999.90;;;;;;;;;;5095411;28;20230;-73
2023/05/08 11:26:12;;;;;;;1999.90;999.90;;;;;;;;;;5098834;28;20271;-72
2023/05/08 11:28:59;;;;;;;1999.90;999.90;;;;;;;;;;5097598;28;20255;-72
2023/05/08 11:31:50;;;;;;;1999.90;999.90;;;;;;;;;;5099277;28;20249;-72
2023/05/08 11:34:45;;;;;;;1999.90;999.90;;;;;;;;;;5098107;28;20253;-71
2023/05/08 11:37:32;;;;;;;1999.90;999.90;;;;;;;;;;5092117;28;20239;-71
2023/05/08 11:40:31;;;;;;;1999.90;999.90;;;;;;;;;;5084004;28;21936;-70
2023/05/08 11:43:24;;;;;;;1999.90;999.90;;;;;;;;;;5076832;28;20216;-74
2023/05/08 11:46:15;;;;;;;1999.90;999.90;;;;;;;;;;5080231;28;20454;-74
2023/05/08 11:49:00;;;;;;;1999.90;999.90;;;;;;;;;;5083146;28;20344;-73
2023/05/08 11:51:46;;;;;;;1999.90;999.90;;;;;;;;;;5083072;28;20212;-73
2023/05/08 11:54:31;;;;;;;1999.90;999.90;;;;;;;;;;5085363;28;20578;-72
2023/05/08 11:57:17;;;;;;;1999.90;999.90;;;;;;;;;;5087564;28;20235;-72
2023/05/08 12:00:04;;;;;;;1999.90;999.90;;;;;;;;;;5081266;28;20212;-74
2023/05/08 12:02:51;;;;;;;1999.90;999.90;;;;;;;;;;5083926;28;20236;-73
2023/05/08 12:05:35;;;;;;;1999.90;999.90;;;;;;;;;;5085509;28;20691;-73
2023/05/08 12:08:20;;;;;;;1999.90;999.90;;;;;;;;;;5079413;28;20354;-72
2023/05/08 12:11:05;;;;;;;1999.90;999.90;;;;;;;;;;5081241;28;20286;-73
2023/05/08 12:13:50;;;;;;;1999.90;999.90;;;;;;;;;;5077977;28;20347;-72
2023/05/08 12:16:37;;;;;;;1999.90;999.90;;;;;;;;;;5081346;28;21692;-74
2023/05/08 12:19:23;;;;;;;1999.90;999.90;;;;;;;;;;5087620;28;21014;-74
2023/05/08 12:22:09;;;;;;;1999.90;999.90;;;;;;;;;;5086648;28;20302;-73
2023/05/08 12:24:54;;;;;;;1999.90;999.90;;;;;;;;;;5084392;28;20216;-73
2023/05/08 12:27:39;;;;;;;1999.90;999.90;;;;;;;;;;5082443;28;20235;-73
2023/05/08 12:30:24;;;;;;;1999.90;999.90;;;;;;;;;;5081421;28;21069;-73
2023/05/08 12:33:09;;;;;;;1999.90;999.90;;;;;;;;;;5082847;28;20437;-73
2023/05/08 12:35:56;;;;;;;1999.90;999.90;;;;;;;;;;5085757;28;20778;-73
2023/05/08 12:38:41;;;;;;;1999.90;999.90;;;;;;;;;;5085312;28;20235;-73
2023/05/08 12:41:26;;;;;;;1999.90;999.90;;;;;;;;;;5084407;28;20574;-72
2023/05/08 12:44:18;;;;;;;1999.90;999.90;;;;;;;;;;5081904;28;20576;-73
2023/05/08 12:47:04;;;;;;;1999.90;999.90;;;;;;;;;;5080455;28;20200;-72
2023/05/08 12:49:49;;;;;;;1999.90;999.90;;;;;;;;;;5087969;28;20584;-74
2023/05/08 12:52:36;;;;;;;1999.90;999.90;;;;;;;;;;5083156;28;20330;-72
2023/05/08 12:55:23;;;;;;;1999.90;999.90;;;;;;;;;;5084947;28;20278;-74
2023/05/08 12:58:08;;;;;;;1999.90;999.90;;;;;;;;;;5084431;28;20227;-72
2023/05/08 13:00:53;;;;;;;1999.90;999.90;;;;;;;;;;5084120;28;20235;-75
2023/05/08 13:03:39;;;;;;;1999.90;999.90;;;;;;;;;;5086433;28;20212;-74
2023/05/08 13:06:24;;;;;;;1999.90;999.90;;;;;;;;;;5084865;28;20262;-75
2023/05/08 13:09:17;;;;;;;1999.90;999.90;;;;;;;;;;5083982;28;20349;-74
2023/05/08 13:12:02;;;;;;;1999.90;999.90;;;;;;;;;;5084680;28;20211;-75
2023/05/08 13:14:47;;;;;;;1999.90;999.90;;;;;;;;;;5077404;28;20822;-75
2023/05/08 13:17:32;;;;;;;1999.90;999.90;;;;;;;;;;5081879;28;20677;-74
2023/05/08 13:20:17;;;;;;;1999.90;999.90;;;;;;;;;;5085171;28;20429;-75
2023/05/08 13:23:02;;;;;;;1999.90;999.90;;;;;;;;;;5076801;28;20284;-75
2023/05/08 13:25:48;;;;;;;1999.90;999.90;;;;;;;;;;5082067;28;20305;-75
2023/05/08 13:28:34;;;;;;;1999.90;999.90;;;;;;;;;;5087820;28;20595;-74
2023/05/08 13:31:19;;;;;;;1999.90;999.90;;;;;;;;;;5079610;28;20739;-74
2023/05/08 13:34:04;;;;;;;1999.90;999.90;;;;;;;;;;5083327;28;20235;-74
2023/05/08 13:36:49;;;;;;;1999.90;999.90;;;;;;;;;;5089163;28;20245;-74
2023/05/08 13:39:36;;;;;;;1999.90;999.90;;;;;;;;;;5091140;28;20199;-75
2023/05/08 13:42:22;;;;;;;1999.90;999.90;;;;;;;;;;5086713;28;20211;-74
2023/05/08 13:45:09;;;;;;;1999.90;999.90;;;;;;;;;;5086064;28;20257;-73
2023/05/08 13:47:54;;;;;;;1999.90;999.90;;;;;;;;;;5084224;28;20232;-74
2023/05/08 13:50:39;;;;;;;1999.90;999.90;;;;;;;;;;5088080;28;20786;-74
2023/05/08 13:53:24;;;;;;;1999.90;999.90;;;;;;;;;;5090748;28;20207;-74
2023/05/08 13:56:09;;;;;;;1999.90;999.90;;;;;;;;;;5086394;28;20203;-74
2023/05/08 13:58:55;;;;;;;1999.90;999.90;;;;;;;;;;5090864;28;20589;-73
2023/05/08 14:01:40;;;;;;;1999.90;999.90;;;;;;;;;;5090563;28;20700;-73
2023/05/08 14:04:25;;;;;;;1999.90;999.90;;;;;;;;;;5079232;28;20287;-72
2023/05/08 14:07:10;;;;;;;1999.90;999.90;;;;;;;;;;5081191;28;20947;-72
2023/05/08 14:09:54;;;;;;;1999.90;999.90;;;;;;;;;;5084835;28;20335;-73
2023/05/08 14:12:39;;;;;;;1999.90;999.90;;;;;;;;;;5088417;28;20262;-72
2023/05/08 14:15:25;;;;;;;1999.90;999.90;;;;;;;;;;5080802;28;20293;-72
2023/05/08 14:18:10;;;;;;;1999.90;999.90;;;;;;;;;;5077736;28;20516;-71
2023/05/08 14:20:55;;;;;;;1999.90;999.90;;;;;;;;;;5081667;28;20730;-74
2023/05/08 14:23:41;;;;;;;1999.90;999.90;;;;;;;;;;5081884;28;20216;-70
2023/05/08 14:26:26;;;;;;;1999.90;999.90;;;;;;;;;;5080508;28;20207;-74
2023/05/08 14:29:11;;;;;;;1999.90;999.90;;;;;;;;;;5078660;28;20334;-73
2023/05/08 14:31:57;;;;;;;1999.90;999.90;;;;;;;;;;5078333;28;20211;-73
2023/05/08 14:34:43;;;;;;;1999.90;999.90;;;;;;;;;;5079276;28;20706;-72
2023/05/08 14:37:28;;;;;;;1999.90;999.90;;;;;;;;;;5083061;28;20307;-72
2023/05/08 14:40:13;;;;;;;1999.90;999.90;;;;;;;;;;5082263;28;20204;-71
2023/05/08 14:42:58;;;;;;;1999.90;999.90;;;;;;;;;;5084186;28;20560;-72
2023/05/08 14:45:43;;;;;;;1999.90;999.90;;;;;;;;;;5083330;28;20215;-71
2023/05/08 14:48:29;;;;;;;1999.90;999.90;;;;;;;;;;5082760;28;20727;-71
2023/05/08 14:51:14;;;;;;;1999.90;999.90;;;;;;;;;;5077627;28;20813;-72
2023/05/08 14:53:59;;;;;;;1999.90;999.90;;;;;;;;;;5081512;28;20612;-72
2023/05/08 14:56:45;;;;;;;1999.90;999.90;;;;;;;;;;5078118;28;20254;-72
2023/05/08 14:59:30;;;;;;;1999.90;999.90;;;;;;;;;;5079528;28;21420;-72
2023/05/08 15:02:16;;;;;;;1999.90;999.90;;;;;;;;;;5074076;28;20209;-71
2023/05/08 15:05:03;;;;;;;1999.90;999.90;;;;;;;;;;5078285;28;20335;-72
2023/05/08 15:07:48;;;;;;;1999.90;999.90;;;;;;;;;;5083778;28;20227;-72
2023/05/08 15:10:33;;;;;;;1999.90;999.90;;;;;;;;;;5075110;28;20285;-73
2023/05/08 15:13:18;;;;;;;1999.90;999.90;;;;;;;;;;5076660;28;20228;-72
2023/05/08 15:16:03;;;;;;;1999.90;999.90;;;;;;;;;;5091974;28;21038;-71
2023/05/08 15:18:48;;;;;;;1999.90;999.90;;;;;;;;;;5083137;28;20843;-69
2023/05/08 15:21:34;;;;;;;1999.90;999.90;;;;;;;;;;5082365;28;20224;-69
2023/05/08 15:24:19;;;;;;;1999.90;999.90;;;;;;;;;;5085081;28;20858;-69
2023/05/08 15:27:04;;;;;;;1999.90;999.90;;;;;;;;;;5083945;28;20231;-70
2023/05/08 15:29:50;;;;;;;1999.90;999.90;;;;;;;;;;5085518;28;20212;-70
2023/05/08 15:32:35;;;;;;;1999.90;999.90;;;;;;;;;;5080258;28;20696;-68
2023/05/08 15:35:20;;;;;;;1999.90;999.90;;;;;;;;;;5083564;28;20215;-71
2023/05/08 15:38:06;;;;;;;1999.90;999.90;;;;;;;;;;5082087;28;20235;-70
2023/05/08 15:40:51;;;;;;;1999.90;999.90;;;;;;;;;;5085994;28;20215;-71
2023/05/08 15:43:37;;;;;;;1999.90;999.90;;;;;;;;;;5085687;28;20281;-69
2023/05/08 15:46:22;;;;;;;1999.90;999.90;;;;;;;;;;5088832;28;20220;-70
2023/05/08 15:49:07;;;;;;;1999.90;999.90;;;;;;;;;;5082975;28;20419;-70
2023/05/08 15:51:52;;;;;;;1999.90;999.90;;;;;;;;;;5084807;28;20703;-71
2023/05/08 15:54:38;;;;;;;1999.90;999.90;;;;;;;;;;5084178;28;20219;-70
2023/05/08 15:57:25;;;;;;;1999.90;999.90;;;;;;;;;;5080747;28;20228;-71
2023/05/08 16:00:11;;;;;;;1999.90;999.90;;;;;;;;;;5080966;28;20204;-70
2023/05/08 16:02:56;;;;;;;1999.90;999.90;;;;;;;;;;5082915;28;20216;-70
2023/05/08 16:05:41;;;;;;;1999.90;999.90;;;;;;;;;;5084790;28;20208;-70
2023/05/08 16:08:28;;;;;;;1999.90;999.90;;;;;;;;;;5084125;28;20578;-71
2023/05/08 16:11:14;;;;;;;1999.90;999.90;;;;;;;;;;5083605;28;20223;-70
2023/05/08 16:14:00;;;;;;;1999.90;999.90;;;;;;;;;;5087387;28;20295;-71
2023/05/08 16:16:45;;;;;;;1999.90;999.90;;;;;;;;;;5081471;28;20222;-70
2023/05/08 16:19:30;;;;;;;1999.90;999.90;;;;;;;;;;5079459;28;20476;-71
2023/05/08 16:22:15;;;;;;;1999.90;999.90;;;;;;;;;;5078746;28;20209;-71
2023/05/08 16:25:00;;;;;;;1999.90;999.90;;;;;;;;;;5080309;28;20770;-71
2023/05/08 16:27:47;;;;;;;1999.90;999.90;;;;;;;;;;5083034;28;20761;-70
2023/05/08 16:30:32;;;;;;;1999.90;999.90;;;;;;;;;;5083526;28;20205;-70
2023/05/08 16:33:16;;;;;;;1999.90;999.90;;;;;;;;;;5081623;28;20231;-70
2023/05/08 16:36:01;;;;;;;1999.90;999.90;;;;;;;;;;5081619;28;20404;-71
2023/05/08 16:38:46;;;;;;;1999.90;999.90;;;;;;;;;;5079868;28;20230;-71
2023/05/08 16:41:31;;;;;;;1999.90;999.90;;;;;;;;;;5081550;28;20207;-71
2023/05/08 16:44:18;;;;;;;1999.90;999.90;;;;;;;;;;5078432;28;20608;-70
2023/05/08 16:47:03;;;;;;;1999.90;999.90;;;;;;;;;;5081045;28;20215;-71
2023/05/08 16:49:48;;;;;;;1999.90;999.90;;;;;;;;;;5077749;28;20262;-71
2023/05/08 16:52:33;;;;;;;1999.90;999.90;;;;;;;;;;5084783;28;20284;-71
2023/05/08 16:55:17;;;;;;;1999.90;999.90;;;;;;;;;;5084122;28;20283;-71
2023/05/08 16:58:03;;;;;;;1999.90;999.90;;;;;;;;;;5080799;28;20282;-71
2023/05/08 17:00:50;;;;;;;1999.90;999.90;;;;;;;;;;5083661;28;20261;-70
2023/05/08 17:03:35;;;;;;;1999.90;999.90;;;;;;;;;;5084318;28;20304;-70
2023/05/08 17:06:19;;;;;;;1999.90;999.90;;;;;;;;;;5077951;28;20209;-71
2023/05/08 17:09:04;;;;;;;1999.90;999.90;;;;;;;;;;5081248;28;20966;-71
2023/05/08 17:11:49;;;;;;;1999.90;999.90;;;;;;;;;;5083973;28;20213;-70
2023/05/08 17:14:34;;;;;;;1999.90;999.90;;;;;;;;;;5079982;28;20235;-70
2023/05/08 17:17:20;;;;;;;1999.90;999.90;;;;;;;;;;5078652;28;20249;-70
2023/05/08 17:20:06;;;;;;;1999.90;999.90;;;;;;;;;;5077001;28;20209;-71
2023/05/08 17:22:52;;;;;;;1999.90;999.90;;;;;;;;;;5076870;28;20223;-72
2023/05/08 17:25:37;;;;;;;1999.90;999.90;;;;;;;;;;5087737;28;20226;-69
2023/05/08 17:28:22;;;;;;;1999.90;999.90;;;;;;;;;;5083097;28;20229;-72
2023/05/08 17:31:08;;;;;;;1999.90;999.90;;;;;;;;;;5072316;28;20759;-71
2023/05/08 17:33:54;;;;;;;1999.90;999.90;;;;;;;;;;5086199;28;20699;-70
2023/05/08 17:36:39;;;;;;;1999.90;999.90;;;;;;;;;;5091679;28;20215;-72
2023/05/08 17:39:24;;;;;;;1999.90;999.90;;;;;;;;;;5092424;28;20274;-71
2023/05/08 17:42:09;;;;;;;1999.90;999.90;;;;;;;;;;5092663;28;20315;-70
2023/05/08 17:44:53;;;;;;;1999.90;999.90;;;;;;;;;;5092616;28;20701;-72
2023/05/08 17:47:39;;;;;;;1999.90;999.90;;;;;;;;;;5089989;28;20223;-71
2023/05/08 17:50:25;;;;;;;1999.90;999.90;;;;;;;;;;5088583;28;20209;-73
2023/05/08 17:53:10;;;;;;;1999.90;999.90;;;;;;;;;;5092483;28;20458;-71
2023/05/08 17:55:56;;;;;;;1999.90;999.90;;;;;;;;;;5088386;28;20283;-70
2023/05/08 17:58:40;;;;;;;1999.90;999.90;;;;;;;;;;5088875;28;21205;-70
2023/05/08 18:01:26;;;;;;;1999.90;999.90;;;;;;;;;;5092067;28;20218;-71
2023/05/08 18:04:11;;;;;;;1999.90;999.90;;;;;;;;;;5086191;28;20301;-69
2023/05/08 18:07:00;;;;;;;1999.90;999.90;;;;;;;;;;5091749;28;20208;-72
2023/05/08 18:09:45;;;;;;;1999.90;999.90;;;;;;;;;;5091699;28;20286;-70
2023/05/08 18:12:31;;;;;;;1999.90;999.90;;;;;;;;;;5091930;28;20196;-70
2023/05/08 18:15:16;;;;;;;1999.90;999.90;;;;;;;;;;5091648;28;20235;-71
2023/05/08 18:18:01;;;;;;;1999.90;999.90;;;;;;;;;;5090171;28;20900;-70
2023/05/08 18:20:46;;;;;;;1999.90;999.90;;;;;;;;;;5092028;28;20530;-71
2023/05/08 18:23:32;;;;;;;1999.90;999.90;;;;;;;;;;5092059;28;20297;-70
2023/05/08 18:26:17;;;;;;;1999.90;999.90;;;;;;;;;;5092054;28;20278;-71
2023/05/08 18:29:03;;;;;;;1999.90;999.90;;;;;;;;;;5091640;28;20220;-71
2023/05/08 18:31:47;;;;;;;1999.90;999.90;;;;;;;;;;5091811;28;20231;-71
2023/05/08 18:34:32;;;;;;;1999.90;999.90;;;;;;;;;;5091702;28;20277;-72
2023/05/08 18:37:17;;;;;;;1999.90;999.90;;;;;;;;;;5091063;28;20234;-70
2023/05/08 18:40:04;;;;;;;1999.90;999.90;;;;;;;;;;5091487;28;20309;-71
2023/05/08 18:42:49;;;;;;;1999.90;999.90;;;;;;;;;;5090837;28;20266;-72
2023/05/08 18:45:37;;;;;;;1999.90;999.90;;;;;;;;;;5087554;28;20216;-69
2023/05/08 18:48:22;;;;;;;1999.90;999.90;;;;;;;;;;5088603;28;20322;-71
2023/05/08 18:51:07;;;;;;;1999.90;999.90;;;;;;;;;;5094280;28;20677;-71
2023/05/08 18:53:52;;;;;;;1999.90;999.90;;;;;;;;;;5094065;28;20207;-72
2023/05/08 18:56:39;;;;;;;1999.90;999.90;;;;;;;;;;5092679;28;20691;-70
2023/05/08 18:59:24;;;;;;;1999.90;999.90;;;;;;;;;;5091495;28;20231;-70
2023/05/08 19:02:09;;;;;;;1999.90;999.90;;;;;;;;;;5095422;28;20200;-70
2023/05/08 19:04:54;;;;;;;1999.90;999.90;;;;;;;;;;5095012;28;20409;-73
2023/05/08 19:07:39;;;;;;;1999.90;999.90;;;;;;;;;;5093173;28;20222;-71
2023/05/08 19:10:24;;;;;;;1999.90;999.90;;;;;;;;;;5091915;28;20204;-71
2023/05/08 19:13:10;;;;;;;1999.90;999.90;;;;;;;;;;5091100;28;20569;-71
2023/05/08 19:15:55;;;;;;;1999.90;999.90;;;;;;;;;;5093435;28;20698;-71
2023/05/08 19:18:40;;;;;;;1999.90;999.90;;;;;;;;;;5091550;28;20219;-71
2023/05/08 19:21:25;;;;;;;1999.90;999.90;;;;;;;;;;5093223;28;20692;-72
2023/05/08 19:24:10;;;;;;;1999.90;999.90;;;;;;;;;;5090075;28;20204;-72
2023/05/08 19:26:55;;;;;;;1999.90;999.90;;;;;;;;;;5088972;28;20795;-71
2023/05/08 19:29:42;;;;;;;1999.90;999.90;;;;;;;;;;5093695;28;20218;-70
2023/05/08 19:32:27;;;;;;;1999.90;999.90;;;;;;;;;;5092894;28;20295;-71